sensor_id;sensor_type;location;lat;lon;timestamp;temperature;humidity
41922;DHT22;27609;51.002;5.354;2022-11-14T00:02:01;5.10;99.90
41922;DHT22;27609;51.002;5.354;2022-11-14T00:04:26;5.00;99.90
41922;DHT22;27609;51.002;5.354;2022-11-14T00:06:52;5.00;99.90
41922;DHT22;27609;51.002;5.354;2022-11-14T00:09:18;5.00;99.90
41922;DHT22;27609;51.002;5.354;2022-11-14T00:11:43;5.00;99.90
41922;DHT22;27609;51.002;5.354;2022-11-14T00:14:10;5.00;99.90
41922;DHT22;27609;51.002;5.354;2022-11-14T00:16:36;5.10;99.90
41922;DHT22;27609;51.002;5.354;2022-11-14T00:19:02;5.00;99.90
41922;DHT22;27609;51.002;5.354;2022-11-14T00:21:27;5.20;99.90
41922;DHT22;27609;51.002;5.354;2022-11-14T00:23:53;5.10;99.90
41922;DHT22;27609;51.002;5.354;2022-11-14T00:26:19;5.10;99.90
41922;DHT22;27609;51.002;5.354;2022-11-14T00:28:44;5.10;99.90
41922;DHT22;27609;51.002;5.354;2022-11-14T00:31:10;5.80;99.90
41922;DHT22;27609;51.002;5.354;2022-11-14T00:33:36;5.20;99.90
41922;DHT22;27609;51.002;5.354;2022-11-14T00:36:03;5.10;99.90
41922;DHT22;27609;51.002;5.354;2022-11-14T00:38:29;5.00;99.90
41922;DHT22;27609;51.002;5.354;2022-11-14T00:40:55;4.90;99.90
41922;DHT22;27609;51.002;5.354;2022-11-14T00:43:21;4.90;99.90
41922;DHT22;27609;51.002;5.354;2022-11-14T00:45:47;4.80;99.90
41922;DHT22;27609;51.002;5.354;2022-11-14T00:48:14;4.70;99.90
41922;DHT22;27609;51.002;5.354;2022-11-14T00:50:40;4.60;99.90
41922;DHT22;27609;51.002;5.354;2022-11-14T00:53:06;4.50;99.90
41922;DHT22;27609;51.002;5.354;2022-11-14T00:55:32;4.60;99.90
41922;DHT22;27609;51.002;5.354;2022-11-14T00:57:58;4.70;99.90
41922;DHT22;27609;51.002;5.354;2022-11-14T01:00:23;4.60;99.90
41922;DHT22;27609;51.002;5.354;2022-11-14T01:02:49;4.70;99.90
41922;DHT22;27609;51.002;5.354;2022-11-14T01:05:15;4.60;99.90
41922;DHT22;27609;51.002;5.354;2022-11-14T01:07:40;4.60;99.90
41922;DHT22;27609;51.002;5.354;2022-11-14T01:10:06;4.60;99.90
41922;DHT22;27609;51.002;5.354;2022-11-14T01:12:33;4.60;99.90
41922;DHT22;27609;51.002;5.354;2022-11-14T01:14:59;4.60;99.90
41922;DHT22;27609;51.002;5.354;2022-11-14T01:17:24;4.60;99.90
41922;DHT22;27609;51.002;5.354;2022-11-14T01:19:53;4.50;99.90
41922;DHT22;27609;51.002;5.354;2022-11-14T01:22:19;4.50;99.90
41922;DHT22;27609;51.002;5.354;2022-11-14T01:24:44;4.50;99.90
41922;DHT22;27609;51.002;5.354;2022-11-14T01:27:10;4.60;99.90
41922;DHT22;27609;51.002;5.354;2022-11-14T01:29:36;4.40;99.90
41922;DHT22;27609;51.002;5.354;2022-11-14T01:32:02;4.30;99.90
41922;DHT22;27609;51.002;5.354;2022-11-14T01:34:28;4.30;99.90
41922;DHT22;27609;51.002;5.354;2022-11-14T01:36:54;4.30;99.90
41922;DHT22;27609;51.002;5.354;2022-11-14T01:39:19;4.30;99.90
41922;DHT22;27609;51.002;5.354;2022-11-14T01:41:45;4.20;99.90
41922;DHT22;27609;51.002;5.354;2022-11-14T01:44:15;4.20;99.90
41922;DHT22;27609;51.002;5.354;2022-11-14T01:46:42;4.10;99.90
41922;DHT22;27609;51.002;5.354;2022-11-14T01:49:25;4.20;99.90
41922;DHT22;27609;51.002;5.354;2022-11-14T01:52:02;4.20;99.90
41922;DHT22;27609;51.002;5.354;2022-11-14T01:54:32;4.20;99.90
41922;DHT22;27609;51.002;5.354;2022-11-14T01:57:00;4.20;99.90
41922;DHT22;27609;51.002;5.354;2022-11-14T01:59:33;4.10;99.90
41922;DHT22;27609;51.002;5.354;2022-11-14T02:02:02;4.10;99.90
41922;DHT22;27609;51.002;5.354;2022-11-14T02:04:35;4.00;99.90
41922;DHT22;27609;51.002;5.354;2022-11-14T02:07:03;4.00;99.90
41922;DHT22;27609;51.002;5.354;2022-11-14T02:09:33;4.00;99.90
41922;DHT22;27609;51.002;5.354;2022-11-14T02:12:03;3.90;99.90
41922;DHT22;27609;51.002;5.354;2022-11-14T02:14:32;3.90;99.90
41922;DHT22;27609;51.002;5.354;2022-11-14T02:16:59;3.80;99.90
41922;DHT22;27609;51.002;5.354;2022-11-14T02:19:24;3.70;99.90
41922;DHT22;27609;51.002;5.354;2022-11-14T02:21:50;3.60;99.90
41922;DHT22;27609;51.002;5.354;2022-11-14T02:24:16;3.60;99.90
41922;DHT22;27609;51.002;5.354;2022-11-14T02:26:41;3.60;99.90
41922;DHT22;27609;51.002;5.354;2022-11-14T02:29:09;3.60;99.90
41922;DHT22;27609;51.002;5.354;2022-11-14T02:31:35;3.60;99.90
41922;DHT22;27609;51.002;5.354;2022-11-14T02:34:01;3.70;99.90
41922;DHT22;27609;51.002;5.354;2022-11-14T02:36:27;3.70;99.90
41922;DHT22;27609;51.002;5.354;2022-11-14T02:38:52;3.70;99.90
41922;DHT22;27609;51.002;5.354;2022-11-14T02:41:18;3.70;99.90
41922;DHT22;27609;51.002;5.354;2022-11-14T02:43:44;4.10;99.90
41922;DHT22;27609;51.002;5.354;2022-11-14T02:46:09;3.70;99.90
41922;DHT22;27609;51.002;5.354;2022-11-14T02:48:36;3.60;99.90
41922;DHT22;27609;51.002;5.354;2022-11-14T02:51:01;3.60;99.90
41922;DHT22;27609;51.002;5.354;2022-11-14T02:53:27;3.70;99.90
41922;DHT22;27609;51.002;5.354;2022-11-14T02:55:52;3.60;99.90
41922;DHT22;27609;51.002;5.354;2022-11-14T02:58:18;3.50;99.90
41922;DHT22;27609;51.002;5.354;2022-11-14T03:00:44;3.50;99.90
41922;DHT22;27609;51.002;5.354;2022-11-14T03:03:09;3.50;99.90
41922;DHT22;27609;51.002;5.354;2022-11-14T03:05:35;3.50;99.90
41922;DHT22;27609;51.002;5.354;2022-11-14T03:08:01;3.40;99.90
41922;DHT22;27609;51.002;5.354;2022-11-14T03:10:27;3.20;99.90
41922;DHT22;27609;51.002;5.354;2022-11-14T03:12:54;3.50;99.90
41922;DHT22;27609;51.002;5.354;2022-11-14T03:15:20;3.10;99.90
41922;DHT22;27609;51.002;5.354;2022-11-14T03:17:45;3.00;99.90
41922;DHT22;27609;51.002;5.354;2022-11-14T03:20:11;3.00;99.90
41922;DHT22;27609;51.002;5.354;2022-11-14T03:22:36;3.00;99.90
41922;DHT22;27609;51.002;5.354;2022-11-14T03:25:02;2.90;99.90
41922;DHT22;27609;51.002;5.354;2022-11-14T03:27:28;2.90;99.90
41922;DHT22;27609;51.002;5.354;2022-11-14T03:29:53;2.90;99.90
41922;DHT22;27609;51.002;5.354;2022-11-14T03:32:19;2.90;99.90
41922;DHT22;27609;51.002;5.354;2022-11-14T03:34:45;2.90;99.90
41922;DHT22;27609;51.002;5.354;2022-11-14T03:37:10;2.90;99.90
41922;DHT22;27609;51.002;5.354;2022-11-14T03:39:36;2.90;99.90
41922;DHT22;27609;51.002;5.354;2022-11-14T03:42:02;2.80;99.90
41922;DHT22;27609;51.002;5.354;2022-11-14T03:44:28;2.70;99.90
41922;DHT22;27609;51.002;5.354;2022-11-14T03:46:53;2.70;99.90
41922;DHT22;27609;51.002;5.354;2022-11-14T03:49:19;2.80;99.90
41922;DHT22;27609;51.002;5.354;2022-11-14T03:51:44;2.80;99.90
41922;DHT22;27609;51.002;5.354;2022-11-14T03:54:10;2.70;99.90
41922;DHT22;27609;51.002;5.354;2022-11-14T03:56:36;2.60;99.90
41922;DHT22;27609;51.002;5.354;2022-11-14T03:59:02;2.60;99.90
41922;DHT22;27609;51.002;5.354;2022-11-14T04:01:27;2.60;99.90
41922;DHT22;27609;51.002;5.354;2022-11-14T04:03:54;2.80;99.90
41922;DHT22;27609;51.002;5.354;2022-11-14T04:06:19;2.80;99.90
41922;DHT22;27609;51.002;5.354;2022-11-14T04:08:45;2.80;99.90
41922;DHT22;27609;51.002;5.354;2022-11-14T04:11:10;2.70;99.90
41922;DHT22;27609;51.002;5.354;2022-11-14T04:13:36;2.70;99.90
41922;DHT22;27609;51.002;5.354;2022-11-14T04:16:02;2.70;99.90
41922;DHT22;27609;51.002;5.354;2022-11-14T04:18:28;2.70;99.90
41922;DHT22;27609;51.002;5.354;2022-11-14T04:20:53;2.70;99.90
41922;DHT22;27609;51.002;5.354;2022-11-14T04:23:19;2.70;99.90
41922;DHT22;27609;51.002;5.354;2022-11-14T04:25:45;2.70;99.90
41922;DHT22;27609;51.002;5.354;2022-11-14T04:28:11;2.60;99.90
41922;DHT22;27609;51.002;5.354;2022-11-14T04:30:37;2.50;99.90
41922;DHT22;27609;51.002;5.354;2022-11-14T04:33:03;2.40;99.90
41922;DHT22;27609;51.002;5.354;2022-11-14T04:35:29;2.40;99.90
41922;DHT22;27609;51.002;5.354;2022-11-14T04:37:55;2.70;99.90
41922;DHT22;27609;51.002;5.354;2022-11-14T04:40:20;2.90;99.90
41922;DHT22;27609;51.002;5.354;2022-11-14T04:42:47;2.90;99.90
41922;DHT22;27609;51.002;5.354;2022-11-14T04:45:12;2.90;99.90
41922;DHT22;27609;51.002;5.354;2022-11-14T04:47:40;2.90;99.90
41922;DHT22;27609;51.002;5.354;2022-11-14T04:50:06;2.90;99.90
41922;DHT22;27609;51.002;5.354;2022-11-14T04:52:32;3.10;99.90
41922;DHT22;27609;51.002;5.354;2022-11-14T04:54:58;2.90;99.90
41922;DHT22;27609;51.002;5.354;2022-11-14T04:57:23;2.90;99.90
41922;DHT22;27609;51.002;5.354;2022-11-14T04:59:49;2.90;99.90
41922;DHT22;27609;51.002;5.354;2022-11-14T05:02:14;2.90;99.90
41922;DHT22;27609;51.002;5.354;2022-11-14T05:04:40;2.80;99.90
41922;DHT22;27609;51.002;5.354;2022-11-14T05:07:06;2.90;99.90
41922;DHT22;27609;51.002;5.354;2022-11-14T05:09:31;2.90;99.90
41922;DHT22;27609;51.002;5.354;2022-11-14T05:11:57;2.90;99.90
41922;DHT22;27609;51.002;5.354;2022-11-14T05:14:22;2.80;99.90
41922;DHT22;27609;51.002;5.354;2022-11-14T05:16:48;2.80;99.90
41922;DHT22;27609;51.002;5.354;2022-11-14T05:19:14;2.80;99.90
41922;DHT22;27609;51.002;5.354;2022-11-14T05:21:39;2.80;99.90
41922;DHT22;27609;51.002;5.354;2022-11-14T05:24:05;2.80;99.90
41922;DHT22;27609;51.002;5.354;2022-11-14T05:26:31;2.80;99.90
41922;DHT22;27609;51.002;5.354;2022-11-14T05:28:56;2.80;99.90
41922;DHT22;27609;51.002;5.354;2022-11-14T05:31:22;2.90;99.90
41922;DHT22;27609;51.002;5.354;2022-11-14T05:33:47;2.80;99.90
41922;DHT22;27609;51.002;5.354;2022-11-14T05:36:15;2.90;99.90
41922;DHT22;27609;51.002;5.354;2022-11-14T05:38:41;2.80;99.90
41922;DHT22;27609;51.002;5.354;2022-11-14T05:41:09;2.80;99.90
41922;DHT22;27609;51.002;5.354;2022-11-14T05:43:35;2.80;99.90
41922;DHT22;27609;51.002;5.354;2022-11-14T05:46:02;2.80;99.90
41922;DHT22;27609;51.002;5.354;2022-11-14T05:48:29;2.90;99.90
41922;DHT22;27609;51.002;5.354;2022-11-14T05:50:55;2.90;99.90
41922;DHT22;27609;51.002;5.354;2022-11-14T05:53:21;2.90;99.90
41922;DHT22;27609;51.002;5.354;2022-11-14T05:55:47;2.70;99.90
41922;DHT22;27609;51.002;5.354;2022-11-14T05:58:12;2.70;99.90
41922;DHT22;27609;51.002;5.354;2022-11-14T06:00:38;2.60;99.90
41922;DHT22;27609;51.002;5.354;2022-11-14T06:03:04;2.50;99.90
41922;DHT22;27609;51.002;5.354;2022-11-14T06:05:29;2.50;99.90
41922;DHT22;27609;51.002;5.354;2022-11-14T06:07:56;2.50;99.90
41922;DHT22;27609;51.002;5.354;2022-11-14T06:10:23;2.50;99.90
41922;DHT22;27609;51.002;5.354;2022-11-14T06:12:49;2.40;99.90
41922;DHT22;27609;51.002;5.354;2022-11-14T06:15:14;2.50;99.90
41922;DHT22;27609;51.002;5.354;2022-11-14T06:17:40;2.50;99.90
41922;DHT22;27609;51.002;5.354;2022-11-14T06:20:06;2.50;99.90
41922;DHT22;27609;51.002;5.354;2022-11-14T06:22:32;2.60;99.90
41922;DHT22;27609;51.002;5.354;2022-11-14T06:24:59;2.60;99.90
41922;DHT22;27609;51.002;5.354;2022-11-14T06:27:24;2.50;99.90
41922;DHT22;27609;51.002;5.354;2022-11-14T06:29:50;2.50;99.90
41922;DHT22;27609;51.002;5.354;2022-11-14T06:32:16;2.60;99.90
41922;DHT22;27609;51.002;5.354;2022-11-14T06:34:41;2.60;99.90
41922;DHT22;27609;51.002;5.354;2022-11-14T06:37:07;2.50;99.90
41922;DHT22;27609;51.002;5.354;2022-11-14T06:39:33;2.50;99.90
41922;DHT22;27609;51.002;5.354;2022-11-14T06:41:58;2.50;99.90
41922;DHT22;27609;51.002;5.354;2022-11-14T06:44:24;2.60;99.90
41922;DHT22;27609;51.002;5.354;2022-11-14T06:46:49;2.60;99.90
41922;DHT22;27609;51.002;5.354;2022-11-14T06:49:15;2.50;99.90
41922;DHT22;27609;51.002;5.354;2022-11-14T06:51:41;2.50;99.90
41922;DHT22;27609;51.002;5.354;2022-11-14T06:54:09;2.60;99.90
41922;DHT22;27609;51.002;5.354;2022-11-14T06:56:35;2.60;99.90
41922;DHT22;27609;51.002;5.354;2022-11-14T06:59:01;2.70;99.90
41922;DHT22;27609;51.002;5.354;2022-11-14T07:01:26;2.80;99.90
41922;DHT22;27609;51.002;5.354;2022-11-14T07:03:52;2.70;99.90
41922;DHT22;27609;51.002;5.354;2022-11-14T07:06:23;2.70;99.90
41922;DHT22;27609;51.002;5.354;2022-11-14T07:08:50;2.70;99.90
41922;DHT22;27609;51.002;5.354;2022-11-14T07:11:18;2.70;99.90
41922;DHT22;27609;51.002;5.354;2022-11-14T07:14:01;2.80;99.90
41922;DHT22;27609;51.002;5.354;2022-11-14T07:16:29;2.70;99.90
41922;DHT22;27609;51.002;5.354;2022-11-14T07:18:56;2.60;99.90
41922;DHT22;27609;51.002;5.354;2022-11-14T07:21:23;2.40;99.90
41922;DHT22;27609;51.002;5.354;2022-11-14T07:23:48;2.50;99.90
41922;DHT22;27609;51.002;5.354;2022-11-14T07:26:14;2.60;99.90
41922;DHT22;27609;51.002;5.354;2022-11-14T07:28:42;2.80;99.90
41922;DHT22;27609;51.002;5.354;2022-11-14T07:31:10;2.90;99.90
41922;DHT22;27609;51.002;5.354;2022-11-14T07:33:40;2.80;99.90
41922;DHT22;27609;51.002;5.354;2022-11-14T07:36:07;2.80;99.90
41922;DHT22;27609;51.002;5.354;2022-11-14T07:38:33;3.00;99.90
41922;DHT22;27609;51.002;5.354;2022-11-14T07:41:01;3.10;99.90
41922;DHT22;27609;51.002;5.354;2022-11-14T07:43:28;3.30;99.90
41922;DHT22;27609;51.002;5.354;2022-11-14T07:46:02;3.40;99.90
41922;DHT22;27609;51.002;5.354;2022-11-14T07:48:29;3.40;99.90
41922;DHT22;27609;51.002;5.354;2022-11-14T07:50:59;3.50;99.90
41922;DHT22;27609;51.002;5.354;2022-11-14T07:53:25;3.60;99.90
41922;DHT22;27609;51.002;5.354;2022-11-14T07:55:51;3.70;99.90
41922;DHT22;27609;51.002;5.354;2022-11-14T07:58:16;3.90;99.90
41922;DHT22;27609;51.002;5.354;2022-11-14T08:00:42;4.10;99.90
41922;DHT22;27609;51.002;5.354;2022-11-14T08:03:07;4.60;99.90
41922;DHT22;27609;51.002;5.354;2022-11-14T08:05:34;5.60;99.90
41922;DHT22;27609;51.002;5.354;2022-11-14T08:07:59;7.20;99.90
41922;DHT22;27609;51.002;5.354;2022-11-14T08:10:25;9.20;99.90
41922;DHT22;27609;51.002;5.354;2022-11-14T08:13:02;11.00;99.90
41922;DHT22;27609;51.002;5.354;2022-11-14T08:15:28;12.50;99.90
41922;DHT22;27609;51.002;5.354;2022-11-14T08:18:00;13.50;99.90
41922;DHT22;27609;51.002;5.354;2022-11-14T08:20:26;14.60;99.90
41922;DHT22;27609;51.002;5.354;2022-11-14T08:23:03;15.80;99.90
41922;DHT22;27609;51.002;5.354;2022-11-14T08:25:29;16.80;99.90
41922;DHT22;27609;51.002;5.354;2022-11-14T08:27:55;17.60;99.30
41922;DHT22;27609;51.002;5.354;2022-11-14T08:30:20;18.50;97.00
41922;DHT22;27609;51.002;5.354;2022-11-14T08:32:46;19.10;95.90
41922;DHT22;27609;51.002;5.354;2022-11-14T08:35:11;19.30;94.80
41922;DHT22;27609;51.002;5.354;2022-11-14T08:37:37;19.40;94.60
41922;DHT22;27609;51.002;5.354;2022-11-14T08:40:03;19.30;93.50
41922;DHT22;27609;51.002;5.354;2022-11-14T08:42:28;16.90;96.30
41922;DHT22;27609;51.002;5.354;2022-11-14T08:44:54;15.90;99.90
41922;DHT22;27609;51.002;5.354;2022-11-14T08:47:20;17.30;98.10
41922;DHT22;27609;51.002;5.354;2022-11-14T08:49:45;17.80;96.00
41922;DHT22;27609;51.002;5.354;2022-11-14T08:52:11;16.50;99.00
41922;DHT22;27609;51.002;5.354;2022-11-14T08:54:36;13.70;99.90
41922;DHT22;27609;51.002;5.354;2022-11-14T08:57:02;12.40;99.90
41922;DHT22;27609;51.002;5.354;2022-11-14T08:59:30;12.50;99.90
41922;DHT22;27609;51.002;5.354;2022-11-14T09:01:56;12.80;99.90
41922;DHT22;27609;51.002;5.354;2022-11-14T09:04:21;14.60;99.90
41922;DHT22;27609;51.002;5.354;2022-11-14T09:06:47;15.50;99.90
41922;DHT22;27609;51.002;5.354;2022-11-14T09:09:13;14.90;99.90
41922;DHT22;27609;51.002;5.354;2022-11-14T09:11:39;14.40;99.90
41922;DHT22;27609;51.002;5.354;2022-11-14T09:14:05;15.30;99.90
41922;DHT22;27609;51.002;5.354;2022-11-14T09:16:30;15.00;99.90
41922;DHT22;27609;51.002;5.354;2022-11-14T09:18:56;14.90;99.90
41922;DHT22;27609;51.002;5.354;2022-11-14T09:21:21;16.20;99.90
41922;DHT22;27609;51.002;5.354;2022-11-14T09:23:47;15.30;99.90
41922;DHT22;27609;51.002;5.354;2022-11-14T09:26:13;14.00;99.90
41922;DHT22;27609;51.002;5.354;2022-11-14T09:28:38;14.10;99.90
41922;DHT22;27609;51.002;5.354;2022-11-14T09:31:10;13.60;99.90
41922;DHT22;27609;51.002;5.354;2022-11-14T09:33:36;14.30;99.90
41922;DHT22;27609;51.002;5.354;2022-11-14T09:36:05;14.30;99.90
41922;DHT22;27609;51.002;5.354;2022-11-14T09:38:32;13.90;99.90
41922;DHT22;27609;51.002;5.354;2022-11-14T09:41:23;13.30;99.90
41922;DHT22;27609;51.002;5.354;2022-11-14T09:46:42;13.00;99.90
41922;DHT22;27609;51.002;5.354;2022-11-14T09:49:34;13.50;99.90
41922;DHT22;27609;51.002;5.354;2022-11-14T09:55:00;14.20;99.90
41922;DHT22;27609;51.002;5.354;2022-11-14T09:57:27;14.10;99.90
41922;DHT22;27609;51.002;5.354;2022-11-14T09:59:54;13.90;99.90
41922;DHT22;27609;51.002;5.354;2022-11-14T10:10:54;14.80;99.90
41922;DHT22;27609;51.002;5.354;2022-11-14T10:19:08;15.50;99.90
41922;DHT22;27609;51.002;5.354;2022-11-14T10:25:02;14.80;99.90
41922;DHT22;27609;51.002;5.354;2022-11-14T10:35:34;13.70;99.90
41922;DHT22;27609;51.002;5.354;2022-11-14T10:40:39;14.20;99.90
41922;DHT22;27609;51.002;5.354;2022-11-14T10:46:25;13.90;99.90
41922;DHT22;27609;51.002;5.354;2022-11-14T10:48:53;13.80;99.90
41922;DHT22;27609;51.002;5.354;2022-11-14T10:51:37;14.20;99.90
41922;DHT22;27609;51.002;5.354;2022-11-14T10:54:18;14.60;99.90
41922;DHT22;27609;51.002;5.354;2022-11-14T10:56:50;15.30;99.90
41922;DHT22;27609;51.002;5.354;2022-11-14T10:59:17;15.30;99.90
41922;DHT22;27609;51.002;5.354;2022-11-14T11:02:02;15.90;99.90
41922;DHT22;27609;51.002;5.354;2022-11-14T11:04:31;14.40;99.90
41922;DHT22;27609;51.002;5.354;2022-11-14T11:09:37;13.00;99.90
41922;DHT22;27609;51.002;5.354;2022-11-14T11:20:38;14.50;99.90
41922;DHT22;27609;51.002;5.354;2022-11-14T11:23:12;13.50;99.90
41922;DHT22;27609;51.002;5.354;2022-11-14T11:25:41;13.00;99.90
41922;DHT22;27609;51.002;5.354;2022-11-14T11:28:14;12.90;99.90
41922;DHT22;27609;51.002;5.354;2022-11-14T11:31:03;13.10;99.90
41922;DHT22;27609;51.002;5.354;2022-11-14T11:33:37;12.40;99.90
41922;DHT22;27609;51.002;5.354;2022-11-14T11:36:12;12.10;99.90
41922;DHT22;27609;51.002;5.354;2022-11-14T11:38:40;12.20;99.90
41922;DHT22;27609;51.002;5.354;2022-11-14T11:41:24;12.60;99.90
41922;DHT22;27609;51.002;5.354;2022-11-14T11:44:14;13.00;99.90
41922;DHT22;27609;51.002;5.354;2022-11-14T11:49:15;13.50;99.90
41922;DHT22;27609;51.002;5.354;2022-11-14T11:51:44;13.00;99.90
41922;DHT22;27609;51.002;5.354;2022-11-14T11:54:15;13.10;99.90
41922;DHT22;27609;51.002;5.354;2022-11-14T11:56:42;13.10;99.90
41922;DHT22;27609;51.002;5.354;2022-11-14T11:59:18;13.60;99.90
41922;DHT22;27609;51.002;5.354;2022-11-14T12:01:46;14.20;99.90
41922;DHT22;27609;51.002;5.354;2022-11-14T12:04:12;14.10;99.90
41922;DHT22;27609;51.002;5.354;2022-11-14T12:06:49;13.90;99.90
41922;DHT22;27609;51.002;5.354;2022-11-14T12:09:26;14.00;99.90
41922;DHT22;27609;51.002;5.354;2022-11-14T12:12:00;13.40;99.90
41922;DHT22;27609;51.002;5.354;2022-11-14T12:20:01;11.80;99.90
41922;DHT22;27609;51.002;5.354;2022-11-14T12:22:51;11.70;99.90
41922;DHT22;27609;51.002;5.354;2022-11-14T12:31:26;11.60;99.90
41922;DHT22;27609;51.002;5.354;2022-11-14T12:33:58;11.60;99.90
41922;DHT22;27609;51.002;5.354;2022-11-14T12:36:30;11.30;99.90
41922;DHT22;27609;51.002;5.354;2022-11-14T12:38:57;11.30;99.90
41922;DHT22;27609;51.002;5.354;2022-11-14T12:43:50;10.90;99.90
41922;DHT22;27609;51.002;5.354;2022-11-14T12:46:16;10.90;99.90
41922;DHT22;27609;51.002;5.354;2022-11-14T12:48:44;10.90;99.90
41922;DHT22;27609;51.002;5.354;2022-11-14T12:53:55;10.60;99.90
41922;DHT22;27609;51.002;5.354;2022-11-14T13:12:56;10.60;99.90
41922;DHT22;27609;51.002;5.354;2022-11-14T13:15:53;10.50;99.90
41922;DHT22;27609;51.002;5.354;2022-11-14T13:19:10;10.90;99.90
41922;DHT22;27609;51.002;5.354;2022-11-14T13:27:28;12.10;99.90
41922;DHT22;27609;51.002;5.354;2022-11-14T13:29:55;11.90;99.90
41922;DHT22;27609;51.002;5.354;2022-11-14T13:35:28;11.70;99.90
41922;DHT22;27609;51.002;5.354;2022-11-14T13:41:45;11.60;99.90
41922;DHT22;27609;51.002;5.354;2022-11-14T13:52:14;10.90;99.90
41922;DHT22;27609;51.002;5.354;2022-11-14T13:54:47;10.90;99.90
41922;DHT22;27609;51.002;5.354;2022-11-14T13:57:40;10.90;99.90
41922;DHT22;27609;51.002;5.354;2022-11-14T14:00:14;10.80;99.90
41922;DHT22;27609;51.002;5.354;2022-11-14T14:05:57;10.60;99.90
41922;DHT22;27609;51.002;5.354;2022-11-14T14:08:49;10.40;99.90
41922;DHT22;27609;51.002;5.354;2022-11-14T14:17:09;10.00;99.90
41922;DHT22;27609;51.002;5.354;2022-11-14T14:20:04;10.00;99.90
41922;DHT22;27609;51.002;5.354;2022-11-14T14:23:00;9.70;99.90
41922;DHT22;27609;51.002;5.354;2022-11-14T14:25:50;9.80;99.90
41922;DHT22;27609;51.002;5.354;2022-11-14T14:31:18;10.00;99.90
41922;DHT22;27609;51.002;5.354;2022-11-14T14:33:46;9.80;99.90
41922;DHT22;27609;51.002;5.354;2022-11-14T14:36:23;9.90;99.90
41922;DHT22;27609;51.002;5.354;2022-11-14T14:38:50;10.00;99.90
41922;DHT22;27609;51.002;5.354;2022-11-14T14:41:30;9.90;99.90
41922;DHT22;27609;51.002;5.354;2022-11-14T14:43:56;10.20;99.90
41922;DHT22;27609;51.002;5.354;2022-11-14T14:46:31;9.80;99.90
41922;DHT22;27609;51.002;5.354;2022-11-14T14:49:00;9.50;99.90
41922;DHT22;27609;51.002;5.354;2022-11-14T14:51:32;9.40;99.90
41922;DHT22;27609;51.002;5.354;2022-11-14T14:53:58;9.30;99.90
41922;DHT22;27609;51.002;5.354;2022-11-14T14:56:24;9.30;99.90
41922;DHT22;27609;51.002;5.354;2022-11-14T14:58:50;9.40;99.90
41922;DHT22;27609;51.002;5.354;2022-11-14T15:01:21;9.40;99.90
41922;DHT22;27609;51.002;5.354;2022-11-14T15:03:51;9.40;99.90
41922;DHT22;27609;51.002;5.354;2022-11-14T15:06:28;9.30;99.90
41922;DHT22;27609;51.002;5.354;2022-11-14T15:09:24;9.50;99.90
41922;DHT22;27609;51.002;5.354;2022-11-14T15:11:55;9.40;99.90
41922;DHT22;27609;51.002;5.354;2022-11-14T15:14:25;9.30;99.90
41922;DHT22;27609;51.002;5.354;2022-11-14T15:16:53;9.10;99.90
41922;DHT22;27609;51.002;5.354;2022-11-14T15:19:26;9.10;99.90
41922;DHT22;27609;51.002;5.354;2022-11-14T15:22:22;9.00;99.90
41922;DHT22;27609;51.002;5.354;2022-11-14T15:27:45;9.00;99.90
41922;DHT22;27609;51.002;5.354;2022-11-14T15:30:29;9.00;99.90
41922;DHT22;27609;51.002;5.354;2022-11-14T15:33:00;8.80;99.90
41922;DHT22;27609;51.002;5.354;2022-11-14T15:35:32;8.70;99.90
41922;DHT22;27609;51.002;5.354;2022-11-14T15:40:29;8.70;99.90
41922;DHT22;27609;51.002;5.354;2022-11-14T15:42:55;8.50;99.90
41922;DHT22;27609;51.002;5.354;2022-11-14T15:45:26;8.50;99.90
41922;DHT22;27609;51.002;5.354;2022-11-14T15:48:00;8.60;99.90
41922;DHT22;27609;51.002;5.354;2022-11-14T15:50:33;8.50;99.90
41922;DHT22;27609;51.002;5.354;2022-11-14T15:53:05;8.50;99.90
41922;DHT22;27609;51.002;5.354;2022-11-14T15:55:31;8.50;99.90
41922;DHT22;27609;51.002;5.354;2022-11-14T15:57:57;8.80;99.90
41922;DHT22;27609;51.002;5.354;2022-11-14T16:00:22;8.50;99.90
41922;DHT22;27609;51.002;5.354;2022-11-14T16:02:57;8.50;99.90
41922;DHT22;27609;51.002;5.354;2022-11-14T16:05:30;8.60;99.90
41922;DHT22;27609;51.002;5.354;2022-11-14T16:07:57;8.60;99.90
41922;DHT22;27609;51.002;5.354;2022-11-14T16:10:24;8.60;99.90
41922;DHT22;27609;51.002;5.354;2022-11-14T16:12:50;8.60;99.90
41922;DHT22;27609;51.002;5.354;2022-11-14T16:15:16;8.60;99.90
41922;DHT22;27609;51.002;5.354;2022-11-14T16:17:44;8.70;99.90
41922;DHT22;27609;51.002;5.354;2022-11-14T16:20:19;8.60;99.90
41922;DHT22;27609;51.002;5.354;2022-11-14T16:22:46;8.60;99.90
41922;DHT22;27609;51.002;5.354;2022-11-14T16:25:24;8.60;99.90
41922;DHT22;27609;51.002;5.354;2022-11-14T16:27:49;8.50;99.90
41922;DHT22;27609;51.002;5.354;2022-11-14T16:30:17;8.60;99.90
41922;DHT22;27609;51.002;5.354;2022-11-14T16:32:44;8.60;99.90
41922;DHT22;27609;51.002;5.354;2022-11-14T16:35:22;8.50;99.90
41922;DHT22;27609;51.002;5.354;2022-11-14T16:37:48;8.70;99.90
41922;DHT22;27609;51.002;5.354;2022-11-14T16:40:19;8.40;99.90
41922;DHT22;27609;51.002;5.354;2022-11-14T16:42:47;8.40;99.90
41922;DHT22;27609;51.002;5.354;2022-11-14T16:45:17;8.30;99.90
41922;DHT22;27609;51.002;5.354;2022-11-14T16:47:45;8.40;99.90
41922;DHT22;27609;51.002;5.354;2022-11-14T16:50:10;8.50;99.90
41922;DHT22;27609;51.002;5.354;2022-11-14T16:52:37;8.40;99.90
41922;DHT22;27609;51.002;5.354;2022-11-14T16:55:04;8.30;99.90
41922;DHT22;27609;51.002;5.354;2022-11-14T16:57:30;8.30;99.90
41922;DHT22;27609;51.002;5.354;2022-11-14T16:59:56;8.30;99.90
41922;DHT22;27609;51.002;5.354;2022-11-14T17:02:23;8.30;99.90
41922;DHT22;27609;51.002;5.354;2022-11-14T17:04:49;8.30;99.90
41922;DHT22;27609;51.002;5.354;2022-11-14T17:07:15;8.30;99.90
41922;DHT22;27609;51.002;5.354;2022-11-14T17:09:41;8.20;99.90
41922;DHT22;27609;51.002;5.354;2022-11-14T17:12:07;8.20;99.90
41922;DHT22;27609;51.002;5.354;2022-11-14T17:14:32;8.50;99.90
41922;DHT22;27609;51.002;5.354;2022-11-14T17:16:58;8.10;99.90
41922;DHT22;27609;51.002;5.354;2022-11-14T17:19:24;8.10;99.90
41922;DHT22;27609;51.002;5.354;2022-11-14T17:21:50;8.10;99.90
41922;DHT22;27609;51.002;5.354;2022-11-14T17:24:16;8.10;99.90
41922;DHT22;27609;51.002;5.354;2022-11-14T17:26:41;8.10;99.90
41922;DHT22;27609;51.002;5.354;2022-11-14T17:29:07;8.20;99.90
41922;DHT22;27609;51.002;5.354;2022-11-14T17:31:33;8.20;99.90
41922;DHT22;27609;51.002;5.354;2022-11-14T17:33:59;8.20;99.90
41922;DHT22;27609;51.002;5.354;2022-11-14T17:36:27;8.20;99.90
41922;DHT22;27609;51.002;5.354;2022-11-14T17:38:54;8.10;99.90
41922;DHT22;27609;51.002;5.354;2022-11-14T17:41:20;8.20;99.90
41922;DHT22;27609;51.002;5.354;2022-11-14T17:43:46;8.20;99.90
41922;DHT22;27609;51.002;5.354;2022-11-14T17:46:15;8.10;99.90
41922;DHT22;27609;51.002;5.354;2022-11-14T17:48:42;8.10;99.90
41922;DHT22;27609;51.002;5.354;2022-11-14T17:51:13;8.10;99.90
41922;DHT22;27609;51.002;5.354;2022-11-14T17:53:40;8.20;99.90